sensor_id;sensor_type;location;lat;lon;timestamp;P1;durP1;ratioP1;P2;durP2;ratioP2
79410;SDS011;69635;50.964;6.948;2024-02-28T00:02:20;41.00;;;15.20;;
79410;SDS011;69635;50.964;6.948;2024-02-28T00:04:46;49.93;;;15.43;;
79410;SDS011;69635;50.964;6.948;2024-02-28T00:07:11;46.15;;;15.50;;
79410;SDS011;69635;50.964;6.948;2024-02-28T00:09:37;51.58;;;14.98;;
79410;SDS011;69635;50.964;6.948;2024-02-28T00:12:02;52.30;;;16.40;;
79410;SDS011;69635;50.964;6.948;2024-02-28T00:14:27;47.90;;;16.53;;
79410;SDS011;69635;50.964;6.948;2024-02-28T00:16:53;53.23;;;16.27;;
79410;SDS011;69635;50.964;6.948;2024-02-28T00:19:18;48.87;;;16.07;;
79410;SDS011;69635;50.964;6.948;2024-02-28T00:21:45;53.35;;;16.25;;
79410;SDS011;69635;50.964;6.948;2024-02-28T00:24:10;45.22;;;15.77;;
79410;SDS011;69635;50.964;6.948;2024-02-28T00:26:36;44.23;;;15.77;;
79410;SDS011;69635;50.964;6.948;2024-02-28T00:29:01;46.78;;;16.05;;
79410;SDS011;69635;50.964;6.948;2024-02-28T00:31:26;50.97;;;15.23;;
79410;SDS011;69635;50.964;6.948;2024-02-28T00:33:52;50.23;;;17.43;;
79410;SDS011;69635;50.964;6.948;2024-02-28T00:36:17;46.23;;;14.60;;
79410;SDS011;69635;50.964;6.948;2024-02-28T00:38:43;42.38;;;15.15;;
79410;SDS011;69635;50.964;6.948;2024-02-28T00:41:08;43.60;;;16.38;;
79410;SDS011;69635;50.964;6.948;2024-02-28T00:43:34;61.33;;;17.75;;
79410;SDS011;69635;50.964;6.948;2024-02-28T00:45:59;49.73;;;15.73;;
79410;SDS011;69635;50.964;6.948;2024-02-28T00:48:25;46.77;;;15.10;;
79410;SDS011;69635;50.964;6.948;2024-02-28T00:50:50;48.05;;;14.27;;
79410;SDS011;69635;50.964;6.948;2024-02-28T00:53:15;53.40;;;18.30;;
79410;SDS011;69635;50.964;6.948;2024-02-28T00:55:41;43.50;;;16.08;;
79410;SDS011;69635;50.964;6.948;2024-02-28T00:58:06;46.93;;;14.27;;
79410;SDS011;69635;50.964;6.948;2024-02-28T01:00:31;47.40;;;16.03;;
79410;SDS011;69635;50.964;6.948;2024-02-28T01:02:56;49.33;;;15.90;;
79410;SDS011;69635;50.964;6.948;2024-02-28T01:05:22;42.40;;;14.53;;
79410;SDS011;69635;50.964;6.948;2024-02-28T01:07:47;49.97;;;16.00;;
79410;SDS011;69635;50.964;6.948;2024-02-28T01:10:12;40.47;;;14.80;;
79410;SDS011;69635;50.964;6.948;2024-02-28T01:12:38;38.10;;;13.63;;
79410;SDS011;69635;50.964;6.948;2024-02-28T01:15:03;49.20;;;17.30;;
79410;SDS011;69635;50.964;6.948;2024-02-28T01:17:29;41.45;;;15.18;;
79410;SDS011;69635;50.964;6.948;2024-02-28T01:19:54;44.20;;;16.60;;
79410;SDS011;69635;50.964;6.948;2024-02-28T01:22:19;41.07;;;15.17;;
79410;SDS011;69635;50.964;6.948;2024-02-28T01:24:44;41.73;;;17.37;;
79410;SDS011;69635;50.964;6.948;2024-02-28T01:27:09;48.00;;;16.20;;
79410;SDS011;69635;50.964;6.948;2024-02-28T01:29:35;49.33;;;16.27;;
79410;SDS011;69635;50.964;6.948;2024-02-28T01:32:00;43.00;;;15.00;;
79410;SDS011;69635;50.964;6.948;2024-02-28T01:34:26;47.87;;;15.53;;
79410;SDS011;69635;50.964;6.948;2024-02-28T01:36:51;46.20;;;16.25;;
79410;SDS011;69635;50.964;6.948;2024-02-28T01:39:16;45.93;;;14.93;;
79410;SDS011;69635;50.964;6.948;2024-02-28T01:41:49;42.45;;;14.02;;
79410;SDS011;69635;50.964;6.948;2024-02-28T01:44:15;48.50;;;15.32;;
79410;SDS011;69635;50.964;6.948;2024-02-28T01:46:40;39.03;;;15.27;;
79410;SDS011;69635;50.964;6.948;2024-02-28T01:49:05;40.20;;;13.77;;
79410;SDS011;69635;50.964;6.948;2024-02-28T01:51:30;44.42;;;15.43;;
79410;SDS011;69635;50.964;6.948;2024-02-28T01:53:56;44.00;;;15.80;;
79410;SDS011;69635;50.964;6.948;2024-02-28T01:56:22;46.88;;;14.90;;
79410;SDS011;69635;50.964;6.948;2024-02-28T01:58:48;51.13;;;16.88;;
79410;SDS011;69635;50.964;6.948;2024-02-28T02:01:13;54.85;;;18.20;;
79410;SDS011;69635;50.964;6.948;2024-02-28T02:03:39;51.63;;;17.42;;
79410;SDS011;69635;50.964;6.948;2024-02-28T02:06:04;55.43;;;20.30;;
79410;SDS011;69635;50.964;6.948;2024-02-28T02:08:30;47.20;;;18.02;;
79410;SDS011;69635;50.964;6.948;2024-02-28T02:10:55;52.60;;;17.15;;
79410;SDS011;69635;50.964;6.948;2024-02-28T02:13:21;56.38;;;17.30;;
79410;SDS011;69635;50.964;6.948;2024-02-28T02:15:47;48.50;;;19.13;;
79410;SDS011;69635;50.964;6.948;2024-02-28T02:18:12;46.90;;;17.17;;
79410;SDS011;69635;50.964;6.948;2024-02-28T02:20:38;47.30;;;17.70;;
79410;SDS011;69635;50.964;6.948;2024-02-28T02:23:06;49.53;;;18.38;;
79410;SDS011;69635;50.964;6.948;2024-02-28T02:25:31;47.78;;;15.85;;
79410;SDS011;69635;50.964;6.948;2024-02-28T02:27:56;48.43;;;18.13;;
79410;SDS011;69635;50.964;6.948;2024-02-28T02:30:22;42.73;;;15.83;;
79410;SDS011;69635;50.964;6.948;2024-02-28T02:32:47;49.47;;;19.23;;
79410;SDS011;69635;50.964;6.948;2024-02-28T02:35:12;61.83;;;17.97;;
79410;SDS011;69635;50.964;6.948;2024-02-28T02:37:38;52.85;;;18.23;;
79410;SDS011;69635;50.964;6.948;2024-02-28T02:40:03;54.63;;;19.97;;
79410;SDS011;69635;50.964;6.948;2024-02-28T02:42:28;58.42;;;20.40;;
79410;SDS011;69635;50.964;6.948;2024-02-28T02:44:54;52.22;;;18.73;;
79410;SDS011;69635;50.964;6.948;2024-02-28T02:47:19;49.83;;;17.50;;
79410;SDS011;69635;50.964;6.948;2024-02-28T02:49:44;49.53;;;18.63;;
79410;SDS011;69635;50.964;6.948;2024-02-28T02:52:09;52.07;;;17.10;;
79410;SDS011;69635;50.964;6.948;2024-02-28T02:54:36;51.20;;;17.03;;
79410;SDS011;69635;50.964;6.948;2024-02-28T02:57:01;55.03;;;20.25;;
79410;SDS011;69635;50.964;6.948;2024-02-28T02:59:26;55.40;;;19.60;;
79410;SDS011;69635;50.964;6.948;2024-02-28T03:01:52;58.33;;;19.87;;
79410;SDS011;69635;50.964;6.948;2024-02-28T03:04:17;56.58;;;19.55;;
79410;SDS011;69635;50.964;6.948;2024-02-28T03:06:42;55.00;;;20.67;;
79410;SDS011;69635;50.964;6.948;2024-02-28T03:09:08;46.77;;;17.47;;
79410;SDS011;69635;50.964;6.948;2024-02-28T03:11:33;47.67;;;18.63;;
79410;SDS011;69635;50.964;6.948;2024-02-28T03:14:00;51.42;;;19.02;;
79410;SDS011;69635;50.964;6.948;2024-02-28T03:16:25;51.28;;;19.23;;
79410;SDS011;69635;50.964;6.948;2024-02-28T03:18:50;48.00;;;18.50;;
79410;SDS011;69635;50.964;6.948;2024-02-28T03:21:16;47.37;;;18.47;;
79410;SDS011;69635;50.964;6.948;2024-02-28T03:23:42;49.70;;;18.00;;
79410;SDS011;69635;50.964;6.948;2024-02-28T03:26:07;50.80;;;17.37;;
79410;SDS011;69635;50.964;6.948;2024-02-28T03:28:32;58.27;;;18.17;;
79410;SDS011;69635;50.964;6.948;2024-02-28T03:30:57;48.43;;;18.07;;
79410;SDS011;69635;50.964;6.948;2024-02-28T03:33:23;49.60;;;18.40;;
79410;SDS011;69635;50.964;6.948;2024-02-28T03:35:50;52.50;;;18.35;;
79410;SDS011;69635;50.964;6.948;2024-02-28T03:38:15;49.13;;;18.60;;
79410;SDS011;69635;50.964;6.948;2024-02-28T03:40:40;55.77;;;20.77;;
79410;SDS011;69635;50.964;6.948;2024-02-28T03:43:05;56.00;;;19.53;;
79410;SDS011;69635;50.964;6.948;2024-02-28T03:45:30;72.77;;;20.27;;
79410;SDS011;69635;50.964;6.948;2024-02-28T03:47:56;56.03;;;20.83;;
79410;SDS011;69635;50.964;6.948;2024-02-28T03:50:21;59.73;;;20.23;;
79410;SDS011;69635;50.964;6.948;2024-02-28T03:52:46;64.03;;;19.37;;
79410;SDS011;69635;50.964;6.948;2024-02-28T03:55:11;57.77;;;21.30;;
79410;SDS011;69635;50.964;6.948;2024-02-28T03:57:36;57.27;;;18.60;;
79410;SDS011;69635;50.964;6.948;2024-02-28T04:00:02;55.90;;;19.83;;
79410;SDS011;69635;50.964;6.948;2024-02-28T04:02:27;55.03;;;17.70;;
79410;SDS011;69635;50.964;6.948;2024-02-28T04:04:53;42.30;;;15.93;;
79410;SDS011;69635;50.964;6.948;2024-02-28T04:07:18;52.57;;;16.87;;
79410;SDS011;69635;50.964;6.948;2024-02-28T04:09:43;58.57;;;20.50;;
79410;SDS011;69635;50.964;6.948;2024-02-28T04:12:08;44.40;;;14.67;;
79410;SDS011;69635;50.964;6.948;2024-02-28T04:14:36;65.77;;;19.50;;
79410;SDS011;69635;50.964;6.948;2024-02-28T04:17:02;55.00;;;18.85;;
79410;SDS011;69635;50.964;6.948;2024-02-28T04:19:27;55.50;;;18.60;;
79410;SDS011;69635;50.964;6.948;2024-02-28T04:21:52;49.63;;;18.57;;
79410;SDS011;69635;50.964;6.948;2024-02-28T04:24:17;61.47;;;20.40;;
79410;SDS011;69635;50.964;6.948;2024-02-28T04:26:43;61.67;;;19.57;;
79410;SDS011;69635;50.964;6.948;2024-02-28T04:29:08;56.97;;;18.90;;
79410;SDS011;69635;50.964;6.948;2024-02-28T04:31:38;54.38;;;19.90;;
79410;SDS011;69635;50.964;6.948;2024-02-28T04:34:04;55.03;;;18.65;;
79410;SDS011;69635;50.964;6.948;2024-02-28T04:36:29;47.40;;;15.40;;
79410;SDS011;69635;50.964;6.948;2024-02-28T04:38:54;68.03;;;21.30;;
79410;SDS011;69635;50.964;6.948;2024-02-28T04:41:19;50.17;;;17.53;;
79410;SDS011;69635;50.964;6.948;2024-02-28T04:43:44;58.97;;;18.33;;
79410;SDS011;69635;50.964;6.948;2024-02-28T04:46:10;62.50;;;19.87;;
79410;SDS011;69635;50.964;6.948;2024-02-28T04:48:35;57.00;;;18.80;;
79410;SDS011;69635;50.964;6.948;2024-02-28T04:51:00;55.83;;;19.70;;
79410;SDS011;69635;50.964;6.948;2024-02-28T04:53:28;67.57;;;21.08;;
79410;SDS011;69635;50.964;6.948;2024-02-28T04:55:53;60.45;;;19.98;;
79410;SDS011;69635;50.964;6.948;2024-02-28T04:58:19;54.67;;;20.70;;
79410;SDS011;69635;50.964;6.948;2024-02-28T05:00:44;48.47;;;19.23;;
79410;SDS011;69635;50.964;6.948;2024-02-28T05:03:09;65.07;;;20.50;;
79410;SDS011;69635;50.964;6.948;2024-02-28T05:05:35;55.10;;;19.00;;
79410;SDS011;69635;50.964;6.948;2024-02-28T05:08:00;61.05;;;20.13;;
79410;SDS011;69635;50.964;6.948;2024-02-28T05:10:25;62.50;;;19.13;;
79410;SDS011;69635;50.964;6.948;2024-02-28T05:12:51;42.80;;;16.03;;
79410;SDS011;69635;50.964;6.948;2024-02-28T05:15:16;57.77;;;20.57;;
79410;SDS011;69635;50.964;6.948;2024-02-28T05:17:42;67.40;;;19.73;;
79410;SDS011;69635;50.964;6.948;2024-02-28T05:20:08;46.70;;;15.38;;
79410;SDS011;69635;50.964;6.948;2024-02-28T05:22:34;58.92;;;20.40;;
79410;SDS011;69635;50.964;6.948;2024-02-28T05:24:59;52.30;;;17.98;;
79410;SDS011;69635;50.964;6.948;2024-02-28T05:27:24;53.63;;;18.63;;
79410;SDS011;69635;50.964;6.948;2024-02-28T05:29:49;58.00;;;18.03;;
79410;SDS011;69635;50.964;6.948;2024-02-28T05:32:15;49.67;;;18.03;;
79410;SDS011;69635;50.964;6.948;2024-02-28T05:34:42;58.75;;;17.17;;
79410;SDS011;69635;50.964;6.948;2024-02-28T05:37:07;60.30;;;20.25;;
79410;SDS011;69635;50.964;6.948;2024-02-28T05:39:32;54.87;;;18.20;;
79410;SDS011;69635;50.964;6.948;2024-02-28T05:41:58;58.15;;;18.50;;
79410;SDS011;69635;50.964;6.948;2024-02-28T05:44:23;64.83;;;18.07;;
79410;SDS011;69635;50.964;6.948;2024-02-28T05:46:49;53.13;;;19.85;;
79410;SDS011;69635;50.964;6.948;2024-02-28T05:49:14;58.53;;;18.85;;
79410;SDS011;69635;50.964;6.948;2024-02-28T05:51:40;57.50;;;19.30;;
79410;SDS011;69635;50.964;6.948;2024-02-28T05:54:05;58.03;;;18.70;;
79410;SDS011;69635;50.964;6.948;2024-02-28T05:56:30;59.17;;;19.57;;
79410;SDS011;69635;50.964;6.948;2024-02-28T05:58:55;53.37;;;18.40;;
79410;SDS011;69635;50.964;6.948;2024-02-28T06:01:22;59.00;;;17.77;;
79410;SDS011;69635;50.964;6.948;2024-02-28T06:03:47;54.03;;;19.08;;
79410;SDS011;69635;50.964;6.948;2024-02-28T06:06:13;54.90;;;19.83;;
79410;SDS011;69635;50.964;6.948;2024-02-28T06:08:39;71.82;;;20.30;;
79410;SDS011;69635;50.964;6.948;2024-02-28T06:11:04;55.00;;;18.70;;
79410;SDS011;69635;50.964;6.948;2024-02-28T06:13:33;55.45;;;18.88;;
79410;SDS011;69635;50.964;6.948;2024-02-28T06:15:58;64.13;;;19.90;;
79410;SDS011;69635;50.964;6.948;2024-02-28T06:18:24;51.00;;;14.63;;
79410;SDS011;69635;50.964;6.948;2024-02-28T06:20:52;51.78;;;16.35;;
79410;SDS011;69635;50.964;6.948;2024-02-28T06:23:18;57.13;;;18.98;;
79410;SDS011;69635;50.964;6.948;2024-02-28T06:25:43;53.37;;;16.47;;
79410;SDS011;69635;50.964;6.948;2024-02-28T06:28:08;48.08;;;16.70;;
79410;SDS011;69635;50.964;6.948;2024-02-28T06:30:35;53.50;;;18.55;;
79410;SDS011;69635;50.964;6.948;2024-02-28T06:33:00;55.67;;;18.45;;
79410;SDS011;69635;50.964;6.948;2024-02-28T06:35:26;67.18;;;18.30;;
79410;SDS011;69635;50.964;6.948;2024-02-28T06:37:51;65.60;;;20.70;;
79410;SDS011;69635;50.964;6.948;2024-02-28T06:40:16;60.92;;;19.30;;
79410;SDS011;69635;50.964;6.948;2024-02-28T06:42:42;62.67;;;19.87;;
79410;SDS011;69635;50.964;6.948;2024-02-28T06:45:07;67.30;;;19.10;;
79410;SDS011;69635;50.964;6.948;2024-02-28T06:47:33;55.35;;;18.20;;
79410;SDS011;69635;50.964;6.948;2024-02-28T06:49:58;63.83;;;19.57;;
79410;SDS011;69635;50.964;6.948;2024-02-28T06:52:24;57.87;;;17.87;;
79410;SDS011;69635;50.964;6.948;2024-02-28T06:54:49;61.07;;;20.63;;
79410;SDS011;69635;50.964;6.948;2024-02-28T06:57:14;46.87;;;16.13;;
79410;SDS011;69635;50.964;6.948;2024-02-28T06:59:39;45.63;;;15.50;;
79410;SDS011;69635;50.964;6.948;2024-02-28T07:02:05;56.67;;;18.33;;
79410;SDS011;69635;50.964;6.948;2024-02-28T07:04:30;55.83;;;16.80;;
79410;SDS011;69635;50.964;6.948;2024-02-28T07:06:55;56.78;;;19.15;;
79410;SDS011;69635;50.964;6.948;2024-02-28T07:09:20;61.03;;;18.00;;
79410;SDS011;69635;50.964;6.948;2024-02-28T07:11:46;52.73;;;16.27;;
79410;SDS011;69635;50.964;6.948;2024-02-28T07:14:11;53.20;;;16.33;;
79410;SDS011;69635;50.964;6.948;2024-02-28T07:16:37;58.90;;;18.20;;
79410;SDS011;69635;50.964;6.948;2024-02-28T07:19:02;49.47;;;16.23;;
79410;SDS011;69635;50.964;6.948;2024-02-28T07:21:27;54.90;;;17.67;;
79410;SDS011;69635;50.964;6.948;2024-02-28T07:23:53;64.97;;;20.38;;
79410;SDS011;69635;50.964;6.948;2024-02-28T07:26:19;54.25;;;18.08;;
79410;SDS011;69635;50.964;6.948;2024-02-28T07:28:44;60.73;;;18.27;;
79410;SDS011;69635;50.964;6.948;2024-02-28T07:31:17;55.53;;;16.92;;
79410;SDS011;69635;50.964;6.948;2024-02-28T07:33:43;62.60;;;18.52;;
79410;SDS011;69635;50.964;6.948;2024-02-28T07:36:08;59.97;;;20.33;;
79410;SDS011;69635;50.964;6.948;2024-02-28T07:38:34;63.25;;;19.35;;
79410;SDS011;69635;50.964;6.948;2024-02-28T07:40:59;55.60;;;18.37;;
79410;SDS011;69635;50.964;6.948;2024-02-28T07:43:24;55.80;;;18.83;;
79410;SDS011;69635;50.964;6.948;2024-02-28T07:45:49;61.13;;;19.30;;
79410;SDS011;69635;50.964;6.948;2024-02-28T07:48:15;40.08;;;16.17;;
79410;SDS011;69635;50.964;6.948;2024-02-28T07:50:43;54.63;;;19.15;;
79410;SDS011;69635;50.964;6.948;2024-02-28T07:53:08;54.08;;;18.02;;
79410;SDS011;69635;50.964;6.948;2024-02-28T07:55:33;59.20;;;18.87;;
79410;SDS011;69635;50.964;6.948;2024-02-28T07:57:58;54.83;;;17.73;;
79410;SDS011;69635;50.964;6.948;2024-02-28T08:00:24;50.90;;;17.20;;
79410;SDS011;69635;50.964;6.948;2024-02-28T08:02:50;56.92;;;18.15;;
79410;SDS011;69635;50.964;6.948;2024-02-28T08:05:15;54.13;;;17.25;;
79410;SDS011;69635;50.964;6.948;2024-02-28T08:07:41;60.58;;;18.95;;
79410;SDS011;69635;50.964;6.948;2024-02-28T08:10:07;57.65;;;19.10;;
79410;SDS011;69635;50.964;6.948;2024-02-28T08:12:32;57.72;;;19.13;;
79410;SDS011;69635;50.964;6.948;2024-02-28T08:14:57;52.43;;;18.53;;
79410;SDS011;69635;50.964;6.948;2024-02-28T08:17:23;59.08;;;20.30;;
79410;SDS011;69635;50.964;6.948;2024-02-28T08:19:49;67.37;;;20.90;;
79410;SDS011;69635;50.964;6.948;2024-02-28T08:22:14;60.80;;;18.27;;
79410;SDS011;69635;50.964;6.948;2024-02-28T08:24:40;64.17;;;19.70;;
79410;SDS011;69635;50.964;6.948;2024-02-28T08:27:05;62.78;;;18.05;;
79410;SDS011;69635;50.964;6.948;2024-02-28T08:29:30;57.30;;;18.10;;
79410;SDS011;69635;50.964;6.948;2024-02-28T08:31:58;54.58;;;18.08;;
79410;SDS011;69635;50.964;6.948;2024-02-28T08:34:23;61.35;;;19.33;;
79410;SDS011;69635;50.964;6.948;2024-02-28T08:36:48;53.55;;;18.45;;
79410;SDS011;69635;50.964;6.948;2024-02-28T08:39:14;57.05;;;18.48;;
79410;SDS011;69635;50.964;6.948;2024-02-28T08:41:39;59.93;;;20.10;;
79410;SDS011;69635;50.964;6.948;2024-02-28T08:44:04;56.73;;;18.20;;
79410;SDS011;69635;50.964;6.948;2024-02-28T08:46:29;53.10;;;18.80;;
79410;SDS011;69635;50.964;6.948;2024-02-28T08:48:55;60.50;;;17.77;;
79410;SDS011;69635;50.964;6.948;2024-02-28T08:51:20;55.50;;;16.97;;
79410;SDS011;69635;50.964;6.948;2024-02-28T08:53:45;50.20;;;17.20;;
79410;SDS011;69635;50.964;6.948;2024-02-28T08:56:10;52.23;;;17.30;;
79410;SDS011;69635;50.964;6.948;2024-02-28T08:58:36;56.03;;;16.87;;
79410;SDS011;69635;50.964;6.948;2024-02-28T09:01:02;48.08;;;17.42;;
79410;SDS011;69635;50.964;6.948;2024-02-28T09:03:28;49.78;;;17.98;;
79410;SDS011;69635;50.964;6.948;2024-02-28T09:05:53;51.87;;;17.67;;
79410;SDS011;69635;50.964;6.948;2024-02-28T09:08:18;52.87;;;17.47;;
79410;SDS011;69635;50.964;6.948;2024-02-28T09:10:43;50.30;;;18.87;;
79410;SDS011;69635;50.964;6.948;2024-02-28T09:13:09;53.03;;;17.80;;
79410;SDS011;69635;50.964;6.948;2024-02-28T09:15:35;49.53;;;17.85;;
79410;SDS011;69635;50.964;6.948;2024-02-28T09:18:00;46.70;;;16.30;;
79410;SDS011;69635;50.964;6.948;2024-02-28T09:20:26;47.05;;;17.48;;
79410;SDS011;69635;50.964;6.948;2024-02-28T09:22:51;44.35;;;16.80;;
79410;SDS011;69635;50.964;6.948;2024-02-28T09:25:16;41.05;;;14.85;;
79410;SDS011;69635;50.964;6.948;2024-02-28T09:27:43;44.53;;;16.52;;
79410;SDS011;69635;50.964;6.948;2024-02-28T09:30:08;49.03;;;16.17;;
79410;SDS011;69635;50.964;6.948;2024-02-28T09:32:34;47.15;;;16.45;;
79410;SDS011;69635;50.964;6.948;2024-02-28T09:34:59;46.93;;;17.13;;
79410;SDS011;69635;50.964;6.948;2024-02-28T09:37:24;38.25;;;15.35;;
79410;SDS011;69635;50.964;6.948;2024-02-28T09:39:50;42.13;;;14.63;;
79410;SDS011;69635;50.964;6.948;2024-02-28T09:42:15;40.50;;;14.93;;
79410;SDS011;69635;50.964;6.948;2024-02-28T09:44:41;46.75;;;15.95;;
79410;SDS011;69635;50.964;6.948;2024-02-28T09:47:07;42.38;;;14.85;;
79410;SDS011;69635;50.964;6.948;2024-02-28T09:49:34;42.50;;;16.33;;
79410;SDS011;69635;50.964;6.948;2024-02-28T09:52:02;49.38;;;16.65;;
79410;SDS011;69635;50.964;6.948;2024-02-28T09:54:28;45.13;;;16.15;;
79410;SDS011;69635;50.964;6.948;2024-02-28T09:56:54;45.30;;;15.60;;
79410;SDS011;69635;50.964;6.948;2024-02-28T09:59:19;45.47;;;15.82;;
79410;SDS011;69635;50.964;6.948;2024-02-28T10:01:47;46.60;;;16.08;;
79410;SDS011;69635;50.964;6.948;2024-02-28T10:04:16;39.92;;;15.23;;
79410;SDS011;69635;50.964;6.948;2024-02-28T10:06:42;43.90;;;16.73;;
79410;SDS011;69635;50.964;6.948;2024-02-28T10:09:07;41.28;;;16.20;;
79410;SDS011;69635;50.964;6.948;2024-02-28T10:11:32;41.97;;;15.32;;
79410;SDS011;69635;50.964;6.948;2024-02-28T10:13:58;44.15;;;16.17;;
79410;SDS011;69635;50.964;6.948;2024-02-28T10:16:24;46.67;;;17.40;;
79410;SDS011;69635;50.964;6.948;2024-02-28T10:18:49;40.40;;;13.90;;
79410;SDS011;69635;50.964;6.948;2024-02-28T10:21:15;42.13;;;15.10;;
79410;SDS011;69635;50.964;6.948;2024-02-28T10:23:40;43.55;;;16.35;;
79410;SDS011;69635;50.964;6.948;2024-02-28T10:26:08;42.10;;;14.80;;
79410;SDS011;69635;50.964;6.948;2024-02-28T10:28:36;47.42;;;15.98;;
79410;SDS011;69635;50.964;6.948;2024-02-28T10:31:01;37.95;;;15.70;;
79410;SDS011;69635;50.964;6.948;2024-02-28T10:33:26;46.55;;;17.23;;
79410;SDS011;69635;50.964;6.948;2024-02-28T10:35:54;40.17;;;15.63;;
79410;SDS011;69635;50.964;6.948;2024-02-28T10:38:19;45.05;;;17.27;;
79410;SDS011;69635;50.964;6.948;2024-02-28T10:40:46;41.42;;;14.90;;
79410;SDS011;69635;50.964;6.948;2024-02-28T10:43:12;47.03;;;16.97;;
79410;SDS011;69635;50.964;6.948;2024-02-28T10:45:42;44.22;;;16.17;;
79410;SDS011;69635;50.964;6.948;2024-02-28T10:48:07;46.83;;;15.57;;
79410;SDS011;69635;50.964;6.948;2024-02-28T10:50:33;40.95;;;16.05;;
79410;SDS011;69635;50.964;6.948;2024-02-28T10:53:03;44.28;;;15.43;;
79410;SDS011;69635;50.964;6.948;2024-02-28T10:55:36;43.35;;;16.20;;
79410;SDS011;69635;50.964;6.948;2024-02-28T10:58:08;39.28;;;15.82;;
79410;SDS011;69635;50.964;6.948;2024-02-28T11:00:35;50.65;;;17.23;;
79410;SDS011;69635;50.964;6.948;2024-02-28T11:03:01;39.50;;;14.95;;
79410;SDS011;69635;50.964;6.948;2024-02-28T11:05:35;39.83;;;14.77;;
79410;SDS011;69635;50.964;6.948;2024-02-28T11:08:00;40.83;;;15.57;;
79410;SDS011;69635;50.964;6.948;2024-02-28T11:10:30;40.87;;;16.77;;
79410;SDS011;69635;50.964;6.948;2024-02-28T11:12:57;43.92;;;15.73;;
79410;SDS011;69635;50.964;6.948;2024-02-28T11:15:24;47.55;;;15.38;;
79410;SDS011;69635;50.964;6.948;2024-02-28T11:17:51;44.78;;;14.98;;
79410;SDS011;69635;50.964;6.948;2024-02-28T11:20:16;38.80;;;14.33;;
79410;SDS011;69635;50.964;6.948;2024-02-28T11:22:42;48.88;;;17.00;;
79410;SDS011;69635;50.964;6.948;2024-02-28T11:25:07;41.03;;;15.43;;
79410;SDS011;69635;50.964;6.948;2024-02-28T11:27:32;42.95;;;15.30;;
79410;SDS011;69635;50.964;6.948;2024-02-28T11:29:58;42.73;;;14.87;;
79410;SDS011;69635;50.964;6.948;2024-02-28T11:32:26;40.43;;;14.50;;
79410;SDS011;69635;50.964;6.948;2024-02-28T11:34:51;41.35;;;13.65;;
79410;SDS011;69635;50.964;6.948;2024-02-28T11:37:17;44.60;;;15.33;;
79410;SDS011;69635;50.964;6.948;2024-02-28T11:39:46;34.08;;;13.23;;
79410;SDS011;69635;50.964;6.948;2024-02-28T11:42:12;37.70;;;15.05;;
79410;SDS011;69635;50.964;6.948;2024-02-28T11:44:40;35.88;;;15.02;;
79410;SDS011;69635;50.964;6.948;2024-02-28T11:47:08;39.22;;;14.82;;
79410;SDS011;69635;50.964;6.948;2024-02-28T11:49:34;34.15;;;13.73;;
79410;SDS011;69635;50.964;6.948;2024-02-28T11:51:59;35.47;;;14.98;;
79410;SDS011;69635;50.964;6.948;2024-02-28T11:54:24;30.27;;;13.40;;
79410;SDS011;69635;50.964;6.948;2024-02-28T11:56:50;31.83;;;12.87;;
79410;SDS011;69635;50.964;6.948;2024-02-28T11:59:15;37.80;;;15.67;;
79410;SDS011;69635;50.964;6.948;2024-02-28T12:01:41;33.67;;;12.63;;
79410;SDS011;69635;50.964;6.948;2024-02-28T12:04:07;35.70;;;14.73;;
79410;SDS011;69635;50.964;6.948;2024-02-28T12:06:34;30.67;;;12.90;;
79410;SDS011;69635;50.964;6.948;2024-02-28T12:08:59;29.80;;;12.85;;
79410;SDS011;69635;50.964;6.948;2024-02-28T12:11:25;30.98;;;12.52;;
79410;SDS011;69635;50.964;6.948;2024-02-28T12:13:53;30.93;;;12.70;;
79410;SDS011;69635;50.964;6.948;2024-02-28T12:16:21;30.40;;;12.65;;
79410;SDS011;69635;50.964;6.948;2024-02-28T12:18:47;29.50;;;12.02;;
79410;SDS011;69635;50.964;6.948;2024-02-28T12:21:12;36.42;;;13.70;;
79410;SDS011;69635;50.964;6.948;2024-02-28T12:23:37;30.67;;;13.17;;
79410;SDS011;69635;50.964;6.948;2024-02-28T12:26:03;29.50;;;11.27;;
79410;SDS011;69635;50.964;6.948;2024-02-28T12:28:28;29.53;;;11.53;;
79410;SDS011;69635;50.964;6.948;2024-02-28T12:30:55;31.73;;;12.95;;
79410;SDS011;69635;50.964;6.948;2024-02-28T12:33:21;33.22;;;12.15;;
79410;SDS011;69635;50.964;6.948;2024-02-28T12:35:47;29.95;;;12.05;;
79410;SDS011;69635;50.964;6.948;2024-02-28T12:38:12;29.80;;;11.23;;
79410;SDS011;69635;50.964;6.948;2024-02-28T12:40:39;33.70;;;13.00;;
79410;SDS011;69635;50.964;6.948;2024-02-28T12:43:05;28.58;;;11.35;;
79410;SDS011;69635;50.964;6.948;2024-02-28T12:45:30;34.60;;;13.53;;
79410;SDS011;69635;50.964;6.948;2024-02-28T12:47:56;28.98;;;11.40;;
79410;SDS011;69635;50.964;6.948;2024-02-28T12:50:22;30.20;;;11.45;;
79410;SDS011;69635;50.964;6.948;2024-02-28T12:52:47;28.43;;;11.77;;
79410;SDS011;69635;50.964;6.948;2024-02-28T12:55:15;30.23;;;11.57;;
79410;SDS011;69635;50.964;6.948;2024-02-28T12:57:41;27.85;;;10.35;;
79410;SDS011;69635;50.964;6.948;2024-02-28T13:00:06;28.37;;;10.53;;
79410;SDS011;69635;50.964;6.948;2024-02-28T13:02:33;25.58;;;10.82;;
79410;SDS011;69635;50.964;6.948;2024-02-28T13:04:58;23.70;;;9.68;;
79410;SDS011;69635;50.964;6.948;2024-02-28T13:07:24;31.23;;;12.05;;
79410;SDS011;69635;50.964;6.948;2024-02-28T13:09:49;25.10;;;10.23;;
79410;SDS011;69635;50.964;6.948;2024-02-28T13:12:14;27.43;;;10.63;;
79410;SDS011;69635;50.964;6.948;2024-02-28T13:14:39;25.23;;;9.83;;
79410;SDS011;69635;50.964;6.948;2024-02-28T13:17:05;21.70;;;10.30;;
79410;SDS011;69635;50.964;6.948;2024-02-28T13:19:30;26.83;;;10.27;;
79410;SDS011;69635;50.964;6.948;2024-02-28T13:21:55;27.60;;;10.40;;
79410;SDS011;69635;50.964;6.948;2024-02-28T13:24:21;23.70;;;9.90;;
79410;SDS011;69635;50.964;6.948;2024-02-28T13:26:46;28.70;;;10.63;;
79410;SDS011;69635;50.964;6.948;2024-02-28T13:29:11;22.07;;;9.67;;
79410;SDS011;69635;50.964;6.948;2024-02-28T13:31:36;30.73;;;10.60;;
79410;SDS011;69635;50.964;6.948;2024-02-28T13:34:02;26.67;;;10.37;;
79410;SDS011;69635;50.964;6.948;2024-02-28T13:36:28;26.48;;;10.30;;
79410;SDS011;69635;50.964;6.948;2024-02-28T13:38:53;24.60;;;10.35;;
79410;SDS011;69635;50.964;6.948;2024-02-28T13:41:18;27.23;;;9.98;;
79410;SDS011;69635;50.964;6.948;2024-02-28T13:43:44;24.07;;;10.10;;
79410;SDS011;69635;50.964;6.948;2024-02-28T13:46:09;24.87;;;10.43;;
79410;SDS011;69635;50.964;6.948;2024-02-28T13:48:35;23.60;;;10.30;;
79410;SDS011;69635;50.964;6.948;2024-02-28T13:51:00;25.05;;;9.60;;
79410;SDS011;69635;50.964;6.948;2024-02-28T13:53:27;28.02;;;10.10;;
79410;SDS011;69635;50.964;6.948;2024-02-28T13:55:52;27.02;;;11.00;;
79410;SDS011;69635;50.964;6.948;2024-02-28T13:58:17;30.02;;;11.18;;
79410;SDS011;69635;50.964;6.948;2024-02-28T14:00:46;16.60;;;8.35;;
79410;SDS011;69635;50.964;6.948;2024-02-28T14:03:12;23.67;;;10.05;;
79410;SDS011;69635;50.964;6.948;2024-02-28T14:05:37;20.73;;;8.15;;
79410;SDS011;69635;50.964;6.948;2024-02-28T14:08:02;23.80;;;9.60;;
79410;SDS011;69635;50.964;6.948;2024-02-28T14:10:29;20.77;;;8.80;;
79410;SDS011;69635;50.964;6.948;2024-02-28T14:12:54;20.43;;;8.07;;